Time;durP1;ratioP1;P1;durP2;ratioP2;P2;SDS_P1;SDS_P2;PMS_P1;PMS_P2;Temp;Humidity;BMP_temperature;BMP_pressure;BME280_temperature;BME280_humidity;BME280_pressure;Samples;Min_cycle;Max_cycle;Signal;HPM_P1;HPM_P2
2022/12/10 00:00:05;;;;;;;;;58.75;44.00;;;;;3.96;64.23;100685.66;2441695;28;45322;-77
2022/12/10 00:01:19;;;;;;;;;59.25;43.50;;;;;3.97;63.46;100686.53;2440799;28;46589;-77
2022/12/10 00:02:29;;;;;;;;;65.75;45.00;;;;;3.96;63.80;100687.38;2443232;28;45410;-77
2022/12/10 00:03:40;;;;;;;;;60.00;45.50;;;;;3.95;63.84;100689.16;2452299;28;45653;-77
2022/12/10 00:04:50;;;;;;;;;58.75;45.75;;;;;3.96;63.51;100687.38;2442558;27;45440;-77
2022/12/10 00:06:05;;;;;;;;;52.75;40.00;;;;;3.95;63.72;100686.53;2441836;28;45306;-77
2022/12/10 00:07:15;;;;;;;;;58.00;46.25;;;;;3.94;63.32;100690.88;2441813;28;44795;-77
2022/12/10 00:08:25;;;;;;;;;58.75;46.00;;;;;3.94;63.70;100683.06;2442036;28;45321;-77
2022/12/10 00:09:36;;;;;;;;;62.25;43.25;;;;;3.95;64.01;100686.53;2442410;28;45403;-77
2022/12/10 00:10:46;;;;;;;;;60.50;43.50;;;;;3.95;64.11;100681.34;2442050;28;46322;-77
2022/12/10 00:11:56;;;;;;;;;60.00;44.25;;;;;3.94;63.76;100682.19;2441446;28;45255;-77
2022/12/10 00:13:07;;;;;;;;;53.75;40.00;;;;;3.94;64.08;100679.59;2442405;28;45370;-77
2022/12/10 00:14:17;;;;;;;;;55.50;45.00;;;;;3.93;64.27;100683.94;2442484;28;45323;-77
2022/12/10 00:15:28;;;;;;;;;56.25;40.50;;;;;3.94;63.96;100684.81;2441985;28;46360;-77
2022/12/10 00:16:38;;;;;;;;;50.50;38.25;;;;;3.94;64.29;100684.81;2441808;28;44867;-77
2022/12/10 00:17:48;;;;;;;;;49.50;40.00;;;;;3.95;64.41;100681.34;2441784;28;45356;-77
2022/12/10 00:18:59;;;;;;;;;48.00;39.00;;;;;3.96;64.63;100682.19;2442524;28;45270;-77
2022/12/10 00:20:10;;;;;;;;;50.75;38.75;;;;;3.98;64.30;100691.72;2441492;28;48103;-77
2022/12/10 00:21:23;;;;;;;;;49.00;35.75;;;;;3.99;64.53;100690.84;2442047;28;44571;-77
2022/12/10 00:22:34;;;;;;;;;48.00;41.75;;;;;4.01;64.85;100696.91;2440592;28;46272;-77
2022/12/10 00:23:45;;;;;;;;;64.25;42.25;;;;;4.02;64.82;100697.78;2442484;28;45159;-76
2022/12/10 00:24:55;;;;;;;;;53.50;41.50;;;;;4.04;65.04;100699.50;2442199;28;46521;-77
2022/12/10 00:26:11;;;;;;;;;54.00;39.50;;;;;4.06;64.56;100704.66;2442215;28;45354;-77
2022/12/10 00:27:21;;;;;;;;;57.50;44.25;;;;;4.07;64.89;100706.41;2442365;28;46523;-77
2022/12/10 00:28:32;;;;;;;;;52.75;40.50;;;;;4.09;65.36;100703.78;2441836;28;45259;-77
2022/12/10 00:29:43;;;;;;;;;43.75;38.25;;;;;4.13;64.95;100700.28;2451056;27;47965;-77
2022/12/10 00:30:53;;;;;;;;;55.25;41.00;;;;;4.15;65.15;100706.34;2455403;27;45228;-77
2022/12/10 00:32:05;;;;;;;;;55.50;41.25;;;;;4.16;65.15;100702.88;2441508;28;45326;-77
2022/12/10 00:33:15;;;;;;;;;50.75;35.75;;;;;4.18;65.35;100698.50;2441018;28;44895;-77
2022/12/10 00:34:26;;;;;;;;;50.25;41.00;;;;;4.21;65.34;100703.72;2442197;28;45405;-77
2022/12/10 00:35:36;;;;;;;;;51.00;36.75;;;;;4.23;65.01;100703.69;2442299;28;45208;-77
2022/12/10 00:36:48;;;;;;;;;56.75;44.25;;;;;4.26;65.17;100707.16;2442301;28;45651;-77
2022/12/10 00:37:59;;;;;;;;;49.50;39.50;;;;;4.28;65.14;100710.59;2441515;28;45220;-77
2022/12/10 00:39:11;;;;;;;;;54.50;41.00;;;;;4.32;65.02;100710.59;2441653;28;46187;-77
2022/12/10 00:40:22;;;;;;;;;51.50;38.25;;;;;4.33;65.23;100705.34;2442354;28;45226;-77
2022/12/10 00:41:33;;;;;;;;;52.25;41.00;;;;;4.36;64.90;100712.28;2442098;28;47236;-77
2022/12/10 00:42:43;;;;;;;;;55.50;43.00;;;;;4.36;65.32;100702.75;2442190;28;44734;-77
2022/12/10 00:43:54;;;;;;;;;46.50;35.25;;;;;4.40;65.37;100703.56;2441794;28;45244;-77
2022/12/10 00:45:04;;;;;;;;;59.75;45.25;;;;;4.42;65.08;100701.81;2441596;28;44687;-77
2022/12/10 00:46:17;;;;;;;;;60.25;45.25;;;;;4.42;65.12;100691.41;2441298;28;45373;-77
2022/12/10 00:47:27;;;;;;;;;53.50;40.25;;;;;4.44;65.15;100688.81;2442216;28;45318;-77
2022/12/10 00:48:39;;;;;;;;;63.25;44.75;;;;;4.45;65.03;100688.78;2439913;28;47448;-77
2022/12/10 00:49:49;;;;;;;;;59.75;45.25;;;;;4.45;64.44;100685.31;2441017;28;45432;-77
2022/12/10 00:51:05;;;;;;;;;50.25;41.75;;;;;4.45;64.51;100696.59;2440774;28;46861;-77
2022/12/10 00:52:16;;;;;;;;;55.00;41.75;;;;;4.44;64.65;100705.28;2440684;28;45470;-77
2022/12/10 00:53:27;;;;;;;;;55.25;39.25;;;;;4.42;64.80;100701.81;2441866;28;46691;-77
2022/12/10 00:54:37;;;;;;;;;49.75;41.00;;;;;4.43;64.37;100713.09;2441755;28;45330;-77
2022/12/10 00:55:47;;;;;;;;;57.25;42.75;;;;;4.43;64.24;100711.34;2442284;28;46180;-77
2022/12/10 00:56:58;;;;;;;;;54.50;42.00;;;;;4.43;64.86;100711.34;2440982;28;45281;-77
2022/12/10 00:58:08;;;;;;;;;52.50;38.50;;;;;4.44;64.38;100712.22;2442083;28;45164;-77
2022/12/10 00:59:18;;;;;;;;;57.25;43.00;;;;;4.44;65.00;100712.22;2441468;28;45449;-77
2022/12/10 01:00:29;;;;;;;;;56.75;42.75;;;;;4.44;64.80;100707.88;2447907;28;46883;-77
2022/12/10 01:01:41;;;;;;;;;50.75;40.00;;;;;4.46;64.96;100713.06;2439687;28;45298;-77
2022/12/10 01:02:52;;;;;;;;;57.25;41.75;;;;;4.47;64.86;100710.44;2443185;28;45632;-77
2022/12/10 01:04:12;;;;;;;;;61.00;45.50;;;;;4.50;65.20;100720.84;2442866;28;45554;-77
2022/12/10 01:05:24;;;;;;;;;64.25;47.00;;;;;4.52;64.70;100710.41;2441999;28;45434;-77
2022/12/10 01:06:40;;;;;;;;;56.00;45.75;;;;;4.54;65.15;100715.63;2440578;28;45329;-77
2022/12/10 01:07:53;;;;;;;;;53.00;41.75;;;;;4.56;65.13;100713.88;2441699;28;45594;-77
2022/12/10 01:09:06;;;;;;;;;55.25;42.50;;;;;4.57;65.10;100716.44;2440028;28;45323;-77
2022/12/10 01:10:17;;;;;;;;;57.50;44.50;;;;;4.59;65.17;100712.09;2441307;28;45340;-77
2022/12/10 01:11:33;;;;;;;;;56.25;44.50;;;;;4.62;65.01;100713.78;2441792;28;45385;-77
2022/12/10 01:12:44;;;;;;;;;57.25;43.25;;;;;4.63;65.29;100715.53;2441976;28;46383;-77
2022/12/10 01:13:55;;;;;;;;;52.50;42.25;;;;;4.66;64.98;100720.72;2442011;28;45334;-77
2022/12/10 01:15:06;;;;;;;;;56.00;43.50;;;;;4.68;65.28;100711.16;2441660;28;45336;-77
2022/12/10 01:16:18;;;;;;;;;58.00;42.00;;;;;4.69;64.87;100714.63;2442097;28;44614;-76
2022/12/10 01:17:28;;;;;;;;;58.25;44.00;;;;;4.71;65.40;100716.34;2441855;28;45253;-77
2022/12/10 01:18:39;;;;;;;;;50.00;39.75;;;;;4.71;65.15;100708.53;2442037;28;45416;-77
2022/12/10 01:19:49;;;;;;;;;53.75;43.00;;;;;4.74;65.34;100705.03;2441378;28;45177;-77
2022/12/10 01:21:01;;;;;;;;;54.00;42.75;;;;;4.74;65.28;100712.84;2440412;28;45176;-77
2022/12/10 01:22:12;;;;;;;;;54.00;43.50;;;;;4.75;65.07;100713.69;2441226;28;45200;-77
2022/12/10 01:23:22;;;;;;;;;59.75;44.00;;;;;4.77;65.25;100722.34;2450997;28;45265;-77
2022/12/10 01:24:32;;;;;;;;;61.50;46.00;;;;;4.77;64.68;100722.34;2440483;28;47881;-77
2022/12/10 01:25:43;;;;;;;;;59.75;46.75;;;;;4.77;64.63;100710.19;2440805;28;45335;-77
2022/12/10 01:26:54;;;;;;;;;60.25;44.25;;;;;4.78;65.06;100719.75;2441345;28;45346;-77
2022/12/10 01:28:05;;;;;;;;;56.50;44.00;;;;;4.80;64.96;100724.94;2441686;28;45374;-77
2022/12/10 01:29:16;;;;;;;;;58.75;42.50;;;;;4.82;64.81;100731.00;2441725;28;45377;-77
2022/12/10 01:30:26;;;;;;;;;57.75;44.00;;;;;4.81;64.88;100724.94;2441564;28;45295;-77
2022/12/10 01:31:37;;;;;;;;;60.50;45.25;;;;;4.84;64.89;100734.44;2440903;28;46062;-77
2022/12/10 01:32:47;;;;;;;;;59.00;44.50;;;;;4.84;64.88;100730.09;2441745;28;45228;-77
2022/12/10 01:33:59;;;;;;;;;61.25;43.25;;;;;4.86;64.62;100734.44;2441646;28;46480;-77
2022/12/10 01:35:09;;;;;;;;;59.25;45.50;;;;;4.85;64.56;100730.97;2442021;28;44652;-77
2022/12/10 01:36:26;;;;;;;;;56.50;45.25;;;;;4.84;64.44;100724.88;2441617;28;45200;-76
2022/12/10 01:37:36;;;;;;;;;55.25;44.50;;;;;4.87;64.89;100728.34;2441655;28;45295;-77
2022/12/10 01:38:47;;;;;;;;;58.50;45.50;;;;;4.88;64.42;100724.88;2441694;28;45386;-77
2022/12/10 01:39:57;;;;;;;;;58.00;45.75;;;;;4.89;64.35;100727.44;2441931;28;44608;-77
2022/12/10 01:41:14;;;;;;;;;61.50;46.25;;;;;4.90;64.40;100738.75;2441638;28;45310;-77
2022/12/10 01:42:24;;;;;;;;;63.50;45.50;;;;;4.89;63.88;100729.22;2441929;28;45317;-77
2022/12/10 01:43:53;;;;;;;;;55.75;43.00;;;;;4.88;64.34;100736.16;2441666;28;46265;-77
2022/12/10 01:45:08;;;;;;;;;61.50;46.00;;;;;4.86;64.24;100732.72;2441020;28;44645;-77
2022/12/10 01:46:20;;;;;;;;;60.25;45.50;;;;;4.86;64.05;100743.13;2441609;28;46581;-77
2022/12/10 01:47:31;;;;;;;;;58.00;45.25;;;;;4.84;64.28;100750.06;2441712;28;45227;-77
2022/12/10 01:48:41;;;;;;;;;63.50;48.50;;;;;4.83;64.05;100744.00;2441613;28;45452;-77
2022/12/10 01:49:52;;;;;;;;;62.50;48.00;;;;;4.81;64.07;100752.72;2441823;28;45217;-77
2022/12/10 01:51:02;;;;;;;;;54.00;41.00;;;;;4.79;64.33;100746.66;2441799;28;46142;-77
2022/12/10 01:52:13;;;;;;;;;55.50;45.25;;;;;4.78;64.10;100756.22;2450796;28;44654;-77
2022/12/10 01:53:23;;;;;;;;;62.50;50.00;;;;;4.78;64.07;100750.13;2448316;27;46169;-77
2022/12/10 01:54:37;;;;;;;;;53.50;44.00;;;;;4.76;64.15;100759.69;2441947;28;44672;-77
2022/12/10 01:55:49;;;;;;;;;60.25;47.25;;;;;4.75;64.15;100760.56;2441577;28;45663;-76
2022/12/10 01:57:00;;;;;;;;;62.25;47.00;;;;;4.76;64.37;100764.91;2440132;28;44687;-77
2022/12/10 01:58:12;;;;;;;;;62.75;46.50;;;;;4.78;64.35;100760.56;2440866;28;47105;-77
2022/12/10 01:59:25;;;;;;;;;63.25;47.50;;;;;4.78;64.59;100761.41;2441861;28;45267;-77
2022/12/10 02:00:43;;;;;;;;;64.25;48.25;;;;;4.80;64.54;100764.88;2441269;28;46183;-77
2022/12/10 02:02:13;;;;;;;;;60.25;47.75;;;;;4.82;64.29;100764.84;2441745;28;45341;-77
2022/12/10 02:03:40;;;;;;;;;63.25;46.75;;;;;4.83;64.40;100763.97;2440684;28;47325;-77
2022/12/10 02:05:00;;;;;;;;;70.75;49.25;;;;;4.84;64.23;100765.69;2441292;28;44725;-77
2022/12/10 02:06:41;;;;;;;;;49.25;38.75;;;;;4.87;64.53;100773.50;2440505;28;45288;-77
2022/12/10 02:08:15;;;;;;;;;67.50;50.75;;;;;4.88;64.32;100767.41;2441741;28;45209;-77
2022/12/10 02:09:36;;;;;;;;;62.75;49.00;;;;;4.90;63.94;100773.47;2440833;28;47312;-77
2022/12/10 02:11:19;;;;;;;;;59.75;48.25;;;;;4.91;64.29;100775.22;2441223;28;44661;-77
2022/12/10 02:12:29;;;;;;;;;66.00;49.25;;;;;4.91;64.12;100779.56;2441573;28;45285;-77
2022/12/10 02:13:45;;;;;;;;;64.50;47.75;;;;;4.89;63.97;100774.34;2441002;28;45154;-77
2022/12/10 02:14:55;;;;;;;;;66.00;49.50;;;;;4.89;63.61;100770.88;2441079;28;45436;-77
2022/12/10 02:16:14;;;;;;;;;64.50;51.00;;;;;4.88;64.26;100775.22;2441461;28;44708;-77
2022/12/10 02:17:34;;;;;;;;;63.50;50.50;;;;;4.87;64.16;100776.09;2441298;28;46751;-77
2022/12/10 02:19:13;;;;;;;;;61.00;46.50;;;;;4.87;63.90;100770.88;2439940;28;45168;-77
2022/12/10 02:20:46;;;;;;;;;58.75;45.25;;;;;4.85;64.33;100772.63;2441206;28;46802;-77
2022/12/10 02:21:58;;;;;;;;;65.25;48.75;;;;;4.87;64.32;100775.22;2441589;28;45362;-77
2022/12/10 02:23:22;;;;;;;;;63.75;49.75;;;;;4.88;64.28;100770.03;2441376;28;45452;-77
2022/12/10 02:24:36;;;;;;;;;67.75;51.00;;;;;4.88;64.12;100764.81;2431939;28;45220;-77
2022/12/10 02:25:54;;;;;;;;;62.00;45.00;;;;;4.90;64.29;100765.66;2439482;28;45323;-77
2022/12/10 02:27:23;;;;;;;;;64.00;49.25;;;;;4.92;64.28;100768.22;2449759;27;44825;-77
2022/12/10 02:28:50;;;;;;;;;56.50;42.25;;;;;4.92;64.16;100773.44;2440511;28;46355;-77
2022/12/10 02:30:01;;;;;;;;;66.00;50.00;;;;;4.91;64.33;100770.00;2435837;28;45255;-77
2022/12/10 02:31:17;;;;;;;;;63.25;48.00;;;;;4.91;64.27;100775.22;2440998;28;46312;-77
2022/12/10 02:32:35;;;;;;;;;63.00;49.00;;;;;4.92;64.55;100786.47;2441531;28;45306;-77
2022/12/10 02:33:50;;;;;;;;;61.75;46.75;;;;;4.91;64.24;100783.03;2441247;28;46400;-77
2022/12/10 02:35:06;;;;;;;;;62.00;46.25;;;;;4.91;64.40;100777.81;2441478;28;45265;-77
2022/12/10 02:36:20;;;;;;;;;61.00;48.75;;;;;4.91;64.38;100777.81;2441414;28;47880;-77
2022/12/10 02:37:35;;;;;;;;;61.50;46.25;;;;;4.91;63.86;100780.41;2441326;28;45212;-77
2022/12/10 02:38:49;;;;;;;;;60.25;47.25;;;;;4.92;63.94;100778.66;2441145;28;45665;-77
2022/12/10 02:40:05;;;;;;;;;59.75;46.25;;;;;4.91;64.24;100777.81;2441465;28;44708;-77
2022/12/10 02:41:21;;;;;;;;;56.50;45.00;;;;;4.94;64.00;100776.91;2440737;28;47345;-77
2022/12/10 02:42:36;;;;;;;;;60.75;46.50;;;;;4.94;64.22;100782.09;2441506;28;45363;-77
2022/12/10 02:43:51;;;;;;;;;61.75;47.25;;;;;4.94;64.55;100788.19;2440442;28;46892;-77
2022/12/10 02:45:03;;;;;;;;;53.75;44.50;;;;;4.95;64.12;100783.84;2440843;28;45262;-77
2022/12/10 02:46:15;;;;;;;;;60.00;47.50;;;;;4.92;64.26;100779.53;2448640;28;45505;-77
2022/12/10 02:47:25;;;;;;;;;59.75;45.75;;;;;4.92;64.01;100776.91;2445329;27;45474;-77
2022/12/10 02:48:37;;;;;;;;;60.00;46.00;;;;;4.92;64.00;100781.25;2441043;28;45479;-77
2022/12/10 02:49:53;;;;;;;;;61.00;47.00;;;;;4.92;64.34;100778.66;2441045;28;45484;-77
2022/12/10 02:51:03;;;;;;;;;57.00;44.25;;;;;4.90;64.15;100783.88;2441042;28;45424;-77
2022/12/10 02:52:17;;;;;;;;;57.50;45.00;;;;;4.91;64.51;100784.75;2441457;28;44708;-77
2022/12/10 02:53:27;;;;;;;;;54.75;43.75;;;;;4.90;64.18;100786.50;2441175;28;46664;-77
2022/12/10 02:54:45;;;;;;;;;60.75;45.00;;;;;4.89;63.89;100787.34;2440598;28;45282;-77
2022/12/10 02:56:13;;;;;;;;;52.25;39.75;;;;;4.89;64.03;100795.16;2431076;28;45396;-77
2022/12/10 02:57:35;;;;;;;;;61.00;46.50;;;;;4.90;64.37;100785.63;2438785;28;45481;-77
2022/12/10 02:59:06;;;;;;;;;62.00;45.00;;;;;4.91;64.57;100792.56;2441102;28;45637;-77
2022/12/10 03:00:22;;;;;;;;;61.25;47.50;;;;;4.87;64.38;100791.72;2441267;28;45476;-77
2022/12/10 03:01:46;;;;;;;;;58.75;43.25;;;;;4.83;64.43;100788.28;2441175;28;45632;-77
2022/12/10 03:03:18;;;;;;;;;65.25;49.50;;;;;4.78;64.46;100787.47;2441149;28;45195;-77
2022/12/10 03:04:40;;;;;;;;;60.00;45.00;;;;;4.78;64.79;100791.81;2440578;28;46420;-77
2022/12/10 03:06:05;;;;;;;;;60.50;46.00;;;;;4.78;64.38;100792.66;2441386;28;44578;-77
2022/12/10 03:07:25;;;;;;;;;56.75;43.75;;;;;4.78;64.12;100786.59;2441068;28;45739;-77
2022/12/10 03:09:01;;;;;;;;;55.00;41.75;;;;;4.80;64.71;100790.03;2441167;28;45306;-77
2022/12/10 03:10:25;;;;;;;;;56.50;45.00;;;;;4.81;64.95;100790.06;2440256;28;47151;-77
2022/12/10 03:11:40;;;;;;;;;57.00;40.25;;;;;4.82;64.78;100793.50;2435200;28;45287;-77
2022/12/10 03:13:00;;;;;;;;;58.50;44.00;;;;;4.80;64.78;100784.84;2440589;28;45637;-77
2022/12/10 03:14:19;;;;;;;;;58.75;45.25;;;;;4.79;64.54;100785.72;2440279;28;45266;-77
2022/12/10 03:15:34;;;;;;;;;58.25;43.75;;;;;4.78;64.55;100777.03;2433791;28;46598;-77
2022/12/10 03:16:50;;;;;;;;;56.25;42.50;;;;;4.79;64.66;100783.97;2439878;28;44791;-77
2022/12/10 03:18:05;;;;;;;;;57.75;42.50;;;;;4.80;64.73;100788.31;2440804;28;46444;-77
2022/12/10 03:19:20;;;;;;;;;52.25;42.00;;;;;4.79;64.77;100778.75;2441211;28;44709;-77
2022/12/10 03:20:34;;;;;;;;;54.50;42.50;;;;;4.82;64.70;100777.88;2440349;28;48711;-77
2022/12/10 03:21:46;;;;;;;;;53.00;42.00;;;;;4.81;64.51;100781.38;2440632;28;45410;-77
2022/12/10 03:22:57;;;;;;;;;53.25;41.25;;;;;4.82;64.57;100777.88;2440958;28;45290;-77
2022/12/10 03:24:11;;;;;;;;;55.25;41.00;;;;;4.82;64.53;100778.75;2441161;28;45231;-77
2022/12/10 03:25:24;;;;;;;;;57.00;41.75;;;;;4.83;64.62;100784.81;2440910;28;45433;-77
2022/12/10 03:26:37;;;;;;;;;53.25;40.00;;;;;4.82;64.60;100788.28;2440989;28;45431;-77
2022/12/10 03:27:53;;;;;;;;;54.25;42.75;;;;;4.80;64.34;100787.44;2441042;28;45247;-77
2022/12/10 03:29:08;;;;;;;;;61.00;42.75;;;;;4.78;64.67;100787.47;2441238;28;45291;-77
2022/12/10 03:30:18;;;;;;;;;57.00;44.00;;;;;4.78;64.64;100794.41;2440804;28;45451;-77
2022/12/10 03:31:30;;;;;;;;;56.75;41.50;;;;;4.79;64.52;100791.78;2440749;28;45351;-77
2022/12/10 03:32:43;;;;;;;;;54.25;39.75;;;;;4.79;64.67;100793.53;2440964;28;45334;-77
2022/12/10 03:33:54;;;;;;;;;56.75;41.00;;;;;4.82;64.67;100801.31;2441072;28;45349;-77
2022/12/10 03:35:06;;;;;;;;;58.00;41.75;;;;;4.82;64.69;100798.69;2440441;28;45408;-77
2022/12/10 03:36:19;;;;;;;;;57.75;42.25;;;;;4.84;64.72;100796.94;2440254;28;45243;-77
2022/12/10 03:37:30;;;;;;;;;51.50;39.25;;;;;4.83;64.46;100801.31;2440376;28;45441;-77
2022/12/10 03:38:42;;;;;;;;;57.75;42.25;;;;;4.83;64.68;100792.63;2440619;28;44615;-77
2022/12/10 03:39:53;;;;;;;;;57.50;44.25;;;;;4.84;64.78;100797.81;2440378;28;45670;-77
2022/12/10 03:41:04;;;;;;;;;55.75;41.50;;;;;4.84;64.05;100797.81;2440878;28;45363;-77
2022/12/10 03:42:15;;;;;;;;;53.00;41.00;;;;;4.85;64.27;100796.09;2439761;28;46487;-77
2022/12/10 03:43:25;;;;;;;;;54.00;38.25;;;;;4.84;64.03;100792.59;2439672;28;45163;-77
2022/12/10 03:44:38;;;;;;;;;54.25;41.00;;;;;4.85;64.49;100798.69;2440812;28;46458;-77
2022/12/10 03:45:48;;;;;;;;;45.25;38.00;;;;;4.86;64.50;100799.56;2440302;28;45480;-77
2022/12/10 03:46:59;;;;;;;;;56.00;42.25;;;;;4.88;64.26;100798.66;2440793;28;46259;-77
2022/12/10 03:48:10;;;;;;;;;56.25;40.00;;;;;4.88;64.40;100796.06;2440977;28;45322;-77
2022/12/10 03:49:20;;;;;;;;;54.75;41.75;;;;;4.91;64.65;100792.56;2440883;28;46271;-77
2022/12/10 03:50:30;;;;;;;;;54.00;41.50;;;;;4.91;64.42;100793.44;2440941;28;44635;-77
2022/12/10 03:51:41;;;;;;;;;53.75;41.00;;;;;4.91;64.25;100803.88;2440770;28;45279;-77
2022/12/10 03:52:51;;;;;;;;;52.25;41.50;;;;;4.92;64.38;100802.97;2441059;28;45210;-77
2022/12/10 03:54:01;;;;;;;;;43.50;36.75;;;;;4.94;64.15;100802.94;2440025;28;47118;-77
2022/12/10 03:55:12;;;;;;;;;51.50;41.75;;;;;4.94;64.43;100797.72;2440390;28;45235;-77
2022/12/10 03:56:22;;;;;;;;;47.50;37.50;;;;;4.96;63.97;100801.22;2439824;28;46760;-77
2022/12/10 03:57:33;;;;;;;;;48.75;37.75;;;;;4.97;64.15;100795.13;2440490;28;45391;-77
2022/12/10 03:58:43;;;;;;;;;51.00;37.50;;;;;4.99;64.34;100797.72;2440852;28;45433;-77
2022/12/10 03:59:54;;;;;;;;;49.75;39.75;;;;;5.02;64.10;100800.28;2441007;28;44661;-77
2022/12/10 04:01:04;;;;;;;;;49.50;41.75;;;;;5.03;63.97;100802.03;2440696;28;45326;-77
2022/12/10 04:02:14;;;;;;;;;51.25;39.75;;;;;5.04;64.01;100804.59;2440889;28;45349;-77
2022/12/10 04:03:25;;;;;;;;;55.75;40.00;;;;;5.03;64.00;100800.28;2439073;28;46314;-77
2022/12/10 04:04:35;;;;;;;;;47.75;36.00;;;;;5.04;63.92;100804.59;2440106;28;45193;-77
2022/12/10 04:05:46;;;;;;;;;51.00;39.00;;;;;5.04;64.01;100803.72;2440215;28;45374;-77
2022/12/10 04:06:56;;;;;;;;;40.75;36.25;;;;;5.04;63.88;100807.22;2440885;28;45311;-77
2022/12/10 04:08:06;;;;;;;;;43.25;34.50;;;;;5.04;64.11;100807.22;2440921;28;45338;-77
2022/12/10 04:09:17;;;;;;;;;51.75;39.75;;;;;5.05;63.99;100805.47;2440974;28;45310;-77
2022/12/10 04:10:27;;;;;;;;;41.00;35.00;;;;;5.04;63.82;100806.34;2440730;28;45357;-77
2022/12/10 04:11:37;;;;;;;;;52.00;38.75;;;;;5.04;63.49;100804.59;2440334;28;44657;-77
2022/12/10 04:16:26;;;;;;;;;54.75;41.00;;;;;5.03;63.57;100808.09;2440067;28;46924;-77
2022/12/10 04:17:16;;;;;;;;;53.00;36.25;;;;;5.04;63.58;100814.16;2448279;28;45246;-77
2022/12/10 04:18:26;;;;;;;;;43.25;35.25;;;;;5.03;63.50;100809.84;2440652;28;45476;-77
2022/12/10 04:19:37;;;;;;;;;51.50;39.00;;;;;5.03;63.64;100805.50;2440728;28;44720;-77
2022/12/10 04:26:54;;;;;;;;;41.75;35.00;;;;;5.02;63.51;100810.69;2440589;28;45283;-77
2022/12/10 04:28:04;;;;;;;;;48.25;36.25;;;;;5.01;63.59;100816.81;2440907;28;45330;-77
2022/12/10 04:29:14;;;;;;;;;40.25;33.75;;;;;4.99;63.22;100815.97;2441112;28;46256;-77
2022/12/10 04:30:24;;;;;;;;;48.75;38.50;;;;;4.97;63.25;100823.78;2442159;28;45334;-77
2022/12/10 04:31:35;;;;;;;;;44.50;37.25;;;;;4.97;63.34;100822.91;2441868;28;46704;-77
2022/12/10 04:32:45;;;;;;;;;45.25;37.75;;;;;4.93;63.24;100822.94;2442404;28;45270;-77
2022/12/10 04:33:56;;;;;;;;;40.25;32.50;;;;;4.93;63.41;100822.06;2441987;28;45331;-77
2022/12/10 04:35:07;;;;;;;;;47.00;36.75;;;;;4.92;63.35;100821.19;2442506;28;45335;-77
2022/12/10 04:36:17;;;;;;;;;49.25;38.00;;;;;4.92;63.57;100821.19;2442241;28;45492;-77
2022/12/10 04:37:28;;;;;;;;;38.25;34.50;;;;;4.94;63.37;100824.66;2441720;28;45198;-77
2022/12/10 04:38:38;;;;;;;;;42.25;34.50;;;;;4.95;63.23;100818.59;2432639;28;46184;-77
2022/12/10 04:39:50;;;;;;;;;49.00;37.25;;;;;4.95;63.52;100826.41;2439064;28;45148;-77
2022/12/10 04:41:00;;;;;;;;;51.75;37.00;;;;;4.96;63.33;100822.06;2442201;28;45493;-77
2022/12/10 04:42:11;;;;;;;;;38.50;31.75;;;;;4.98;63.23;100819.44;2442540;28;45228;-77
2022/12/10 04:43:21;;;;;;;;;33.50;26.25;;;;;4.99;63.70;100828.97;2442185;28;45710;-77
2022/12/10 04:44:32;;;;;;;;;40.00;32.00;;;;;5.00;63.17;100828.09;2442407;28;45153;-77
2022/12/10 04:45:43;;;;;;;;;44.50;36.00;;;;;5.01;63.26;100835.03;2441176;28;45813;-77
2022/12/10 04:46:53;;;;;;;;;46.25;34.50;;;;;5.00;63.16;100836.78;2442165;28;45248;-77
2022/12/10 04:48:03;;;;;;;;;38.00;31.25;;;;;4.99;63.17;100831.59;2441941;28;46292;-77
2022/12/10 04:49:14;;;;;;;;;41.75;35.75;;;;;4.99;63.37;100837.63;2442294;28;45281;-77
2022/12/10 04:50:25;;;;;;;;;54.25;38.00;;;;;4.99;63.10;100834.19;2451194;28;48468;-77
2022/12/10 04:51:35;;;;;;;;;42.50;35.25;;;;;5.00;63.27;100836.78;2448523;28;44793;-77
2022/12/10 04:52:46;;;;;;;;;35.75;26.00;;;;;5.01;63.35;100833.28;2442151;28;46374;-77
2022/12/10 04:53:57;;;;;;;;;35.75;30.00;;;;;5.03;63.16;100831.56;2442096;28;45244;-77
2022/12/10 04:55:07;;;;;;;;;41.25;33.00;;;;;5.02;63.16;100824.59;2442104;28;46342;-77
2022/12/10 04:56:18;;;;;;;;;41.50;31.75;;;;;5.03;63.23;100828.94;2442295;28;44559;-77
2022/12/10 04:57:28;;;;;;;;;44.25;34.50;;;;;5.03;62.91;100834.16;2442136;28;46312;-77
2022/12/10 04:58:38;;;;;;;;;42.00;34.50;;;;;5.04;63.23;100838.47;2442286;28;45154;-77
2022/12/10 04:59:49;;;;;;;;;43.00;33.75;;;;;5.04;62.77;100830.66;2442071;28;45602;-77
2022/12/10 05:01:04;;;;;;;;;35.25;30.50;;;;;5.03;62.62;100828.06;2442144;28;45259;-77
2022/12/10 05:02:14;;;;;;;;;44.00;31.50;;;;;5.02;62.61;100831.53;2442015;28;45357;-77
2022/12/10 05:03:24;;;;;;;;;32.75;27.00;;;;;5.03;62.70;100835.88;2442058;28;45321;-77
2022/12/10 05:04:35;;;;;;;;;40.00;31.00;;;;;5.02;62.46;100828.94;2441908;28;45478;-77
2022/12/10 05:05:45;;;;;;;;;32.25;28.75;;;;;5.01;62.75;100835.03;2441645;28;45353;-77
2022/12/10 05:06:55;;;;;;;;;43.50;34.75;;;;;4.99;62.58;100837.63;2441088;28;46526;-77
2022/12/10 05:08:06;;;;;;;;;39.50;31.25;;;;;5.01;62.46;100840.25;2442177;28;45238;-77
2022/12/10 05:09:17;;;;;;;;;33.75;30.75;;;;;5.00;62.26;100828.09;2442124;28;45422;-77
2022/12/10 05:10:27;;;;;;;;;39.50;33.00;;;;;4.99;62.18;100831.59;2441574;28;45274;-77
2022/12/10 05:11:38;;;;;;;;;38.50;30.75;;;;;5.00;62.07;100833.31;2447559;28;45511;-77
2022/12/10 05:12:48;;;;;;;;;36.50;30.00;;;;;4.98;62.11;100827.25;2441617;28;45222;-77
2022/12/10 05:14:00;;;;;;;;;32.00;25.25;;;;;4.99;61.72;100831.59;2442010;28;45389;-77
2022/12/10 05:15:10;;;;;;;;;32.75;28.00;;;;;4.97;61.77;100833.31;2442215;28;45219;-77
2022/12/10 05:16:23;;;;;;;;;37.25;31.25;;;;;4.95;61.87;100831.59;2441990;28;45375;-77
2022/12/10 05:17:33;;;;;;;;;27.00;23.75;;;;;4.98;61.71;100829.84;2442053;28;45319;-77
2022/12/10 05:18:44;;;;;;;;;29.25;23.75;;;;;4.97;61.60;100830.72;2441129;28;47432;-77
2022/12/10 05:19:54;;;;;;;;;33.00;27.00;;;;;4.96;60.89;100824.66;2441623;28;44791;-77
2022/12/10 05:21:09;;;;;;;;;27.50;24.50;;;;;4.98;61.32;100832.47;2442079;28;45345;-77
2022/12/10 05:23:51;;;;;;;;;33.50;28.25;;;;;4.92;61.67;100831.63;2441952;28;45255;-77
2022/12/10 05:25:01;;;;;;;;;31.00;26.00;;;;;4.91;61.61;100831.66;2442067;28;45235;-77
2022/12/10 05:26:14;;;;;;;;;36.00;28.75;;;;;4.89;61.96;100834.25;2441841;28;45175;-77
2022/12/10 05:27:24;;;;;;;;;36.25;27.50;;;;;4.88;61.50;100835.13;2441762;28;45321;-77
2022/12/10 05:28:46;;;;;;;;;32.25;27.75;;;;;4.87;62.10;100838.59;2441051;28;48338;-77
2022/12/10 05:29:56;;;;;;;;;32.25;26.25;;;;;4.85;61.60;100829.94;2441410;28;44714;-77
2022/12/10 05:31:17;;;;;;;;;28.75;23.50;;;;;4.86;61.92;100839.50;2441933;28;45354;-77
2022/12/10 05:32:28;;;;;;;;;26.75;25.50;;;;;4.85;62.02;100845.56;2441881;28;45331;-77
2022/12/10 05:33:38;;;;;;;;;37.25;28.75;;;;;4.87;61.58;100842.94;2441770;28;46174;-77
2022/12/10 05:34:49;;;;;;;;;37.00;24.75;;;;;4.84;62.02;100838.63;2442115;28;45145;-77
2022/12/10 05:36:01;;;;;;;;;42.25;28.75;;;;;4.83;61.86;100842.13;2440867;28;47295;-77
2022/12/10 05:37:11;;;;;;;;;30.00;25.00;;;;;4.82;61.31;100841.25;2441673;28;44625;-77
2022/12/10 05:38:22;;;;;;;;;29.25;23.50;;;;;4.81;61.35;100843.88;2440844;28;47558;-77
2022/12/10 05:39:32;;;;;;;;;27.00;24.75;;;;;4.81;62.05;100838.66;2434216;28;44643;-77
2022/12/10 05:40:43;;;;;;;;;31.25;25.00;;;;;4.81;61.75;100847.34;2443572;28;47163;-77
2022/12/10 05:41:54;;;;;;;;;31.00;25.00;;;;;4.82;61.88;100846.44;2448602;28;45261;-77
2022/12/10 05:43:04;;;;;;;;;33.75;27.25;;;;;4.79;61.87;100849.06;2441701;28;45337;-77
2022/12/10 05:44:15;;;;;;;;;29.50;26.25;;;;;4.79;62.06;100843.88;2441298;28;45497;-77
2022/12/10 05:45:25;;;;;;;;;27.25;20.25;;;;;4.78;62.02;100846.50;2441637;28;45251;-77
2022/12/10 05:46:35;;;;;;;;;31.50;25.50;;;;;4.81;61.87;100854.28;2441358;28;45395;-77